createdAt,value
2022-12-23T00:00:02.185Z,99.90
2022-12-23T00:02:31.096Z,99.90
2022-12-23T00:04:59.072Z,99.90
2022-12-23T00:07:26.946Z,99.90
2022-12-23T00:09:55.163Z,99.90
2022-12-23T00:12:47.238Z,99.90
2022-12-23T00:15:15.206Z,99.90
2022-12-23T00:17:43.944Z,99.90
2022-12-23T00:20:12.863Z,99.90
2022-12-23T00:22:57.922Z,99.90
2022-12-23T00:25:40.340Z,99.90
2022-12-23T00:28:11.797Z,99.90
2022-12-23T00:30:44.940Z,99.90
2022-12-23T00:33:12.844Z,99.90
2022-12-23T00:35:40.824Z,99.90
2022-12-23T00:38:08.749Z,99.90
2022-12-23T00:40:54.375Z,99.90
2022-12-23T00:43:23.618Z,99.90
2022-12-23T00:45:51.600Z,99.90
2022-12-23T00:48:36.888Z,99.90
2022-12-23T00:51:04.767Z,99.90
2022-12-23T00:53:32.640Z,99.90
2022-12-23T00:56:00.508Z,99.90
2022-12-23T00:58:31.921Z,99.90
2022-12-23T01:01:17.064Z,99.90
2022-12-23T01:04:02.528Z,99.90
2022-12-23T01:06:30.411Z,99.90
2022-12-23T01:08:58.252Z,99.90
2022-12-23T01:11:26.147Z,99.90
2022-12-23T01:13:55.321Z,99.90
2022-12-23T01:16:23.215Z,99.90
2022-12-23T01:18:51.103Z,99.90
2022-12-23T01:21:18.981Z,99.90
2022-12-23T01:23:46.848Z,99.90
2022-12-23T01:26:14.742Z,99.90
2022-12-23T01:28:42.620Z,99.90
2022-12-23T01:31:12.118Z,99.90
2022-12-23T01:33:40.066Z,99.90
2022-12-23T01:36:08.948Z,99.90
2022-12-23T01:38:36.822Z,99.90
2022-12-23T01:41:04.775Z,99.90
2022-12-23T01:43:55.648Z,99.90
2022-12-23T01:46:24.921Z,99.90
2022-12-23T01:48:53.377Z,99.90
2022-12-23T01:51:22.852Z,99.90
2022-12-23T01:53:53.656Z,99.90
2022-12-23T01:56:23.977Z,99.90
2022-12-23T01:58:52.899Z,99.90
2022-12-23T02:01:38.498Z,99.90
2022-12-23T02:04:09.169Z,99.90
2022-12-23T02:06:55.911Z,99.90
2022-12-23T02:09:24.972Z,99.90
2022-12-23T02:12:05.751Z,99.90
2022-12-23T02:14:57.348Z,99.90
2022-12-23T02:17:26.813Z,99.90
2022-12-23T02:20:08.208Z,99.90
2022-12-23T02:22:44.957Z,99.90
2022-12-23T02:25:29.562Z,99.90
2022-12-23T02:28:04.983Z,99.90
2022-12-23T02:30:41.960Z,99.90
2022-12-23T02:33:15.123Z,99.90
2022-12-23T02:35:46.000Z,99.90
2022-12-23T02:38:16.030Z,99.90
2022-12-23T02:40:47.745Z,99.90
2022-12-23T02:43:17.233Z,99.90
2022-12-23T02:45:49.096Z,99.90
2022-12-23T02:48:19.201Z,99.90
2022-12-23T02:50:48.226Z,99.90
2022-12-23T02:53:25.131Z,99.90
2022-12-23T02:55:54.455Z,99.90
2022-12-23T02:58:24.539Z,99.90
2022-12-23T03:00:54.477Z,99.90
2022-12-23T03:03:22.464Z,99.90
2022-12-23T03:05:51.488Z,99.90
2022-12-23T03:08:21.752Z,99.90
2022-12-23T03:10:59.321Z,99.90
2022-12-23T03:13:33.944Z,99.90
2022-12-23T03:16:11.291Z,99.90
2022-12-23T03:18:44.719Z,99.90
2022-12-23T03:21:15.586Z,99.90
2022-12-23T03:23:49.112Z,99.90
2022-12-23T03:26:20.697Z,99.90
2022-12-23T03:28:50.526Z,99.90
2022-12-23T03:31:24.083Z,99.90
2022-12-23T03:33:55.120Z,99.90
2022-12-23T03:36:24.580Z,99.90
2022-12-23T03:38:54.378Z,99.90
2022-12-23T03:41:24.385Z,99.90
2022-12-23T03:43:55.742Z,99.90
2022-12-23T03:46:27.357Z,99.90
2022-12-23T03:48:58.215Z,99.90
2022-12-23T03:51:29.135Z,99.90
2022-12-23T03:53:58.979Z,99.90
2022-12-23T03:56:29.391Z,99.90
2022-12-23T03:58:59.471Z,99.90
2022-12-23T04:01:32.975Z,99.90
2022-12-23T04:04:03.017Z,99.90
2022-12-23T04:06:33.242Z,99.90
2022-12-23T04:09:01.677Z,99.90
2022-12-23T04:11:30.002Z,99.90
2022-12-23T04:13:57.940Z,99.90
2022-12-23T04:16:25.846Z,99.90
2022-12-23T04:18:55.167Z,99.90
2022-12-23T04:21:23.003Z,99.90
2022-12-23T04:23:50.882Z,99.90
2022-12-23T04:26:18.721Z,99.90
2022-12-23T04:28:46.564Z,99.90
2022-12-23T04:31:14.438Z,99.90
2022-12-23T04:33:42.330Z,99.90
2022-12-23T04:36:11.562Z,99.90
2022-12-23T04:38:39.422Z,99.90
2022-12-23T04:41:07.260Z,99.90
2022-12-23T04:43:35.143Z,99.90
2022-12-23T04:46:03.021Z,99.90
2022-12-23T04:48:30.940Z,99.90
2022-12-23T04:50:58.781Z,99.90
2022-12-23T04:53:28.037Z,99.90
2022-12-23T04:55:55.930Z,99.90
2022-12-23T04:58:25.090Z,99.90
2022-12-23T05:01:01.459Z,99.90
2022-12-23T05:03:29.619Z,99.90
2022-12-23T05:05:57.506Z,99.90
2022-12-23T05:08:25.342Z,99.90
2022-12-23T05:10:54.595Z,99.90
2022-12-23T05:13:22.491Z,99.90
2022-12-23T05:15:51.481Z,99.90
2022-12-23T05:18:19.821Z,99.90
2022-12-23T05:20:47.702Z,99.90
2022-12-23T05:23:15.535Z,99.90
2022-12-23T05:25:43.408Z,99.90
2022-12-23T05:28:13.930Z,99.90
2022-12-23T05:30:41.779Z,99.90
2022-12-23T05:33:09.681Z,99.90
2022-12-23T05:35:37.630Z,99.90
2022-12-23T05:38:05.461Z,99.90
2022-12-23T05:40:33.767Z,99.90
2022-12-23T05:43:01.980Z,99.90
2022-12-23T05:45:31.233Z,99.90
2022-12-23T05:47:59.156Z,99.90
2022-12-23T05:50:27.060Z,99.90
2022-12-23T05:52:55.901Z,99.90
2022-12-23T05:55:23.712Z,99.90
2022-12-23T05:57:51.601Z,99.90
2022-12-23T06:00:20.041Z,99.90
2022-12-23T06:02:53.973Z,99.90
2022-12-23T06:05:22.317Z,99.90
2022-12-23T06:07:50.190Z,99.90
2022-12-23T06:10:18.127Z,99.90
2022-12-23T06:12:45.963Z,99.90
2022-12-23T06:15:13.883Z,99.90
2022-12-23T06:17:41.766Z,99.90
2022-12-23T06:20:19.616Z,99.90
2022-12-23T06:22:48.029Z,99.90
2022-12-23T06:25:15.971Z,99.90
2022-12-23T06:27:43.855Z,99.90
2022-12-23T06:30:11.993Z,99.90
2022-12-23T06:32:39.881Z,99.90
2022-12-23T06:35:08.296Z,99.90
2022-12-23T06:37:37.606Z,99.90
2022-12-23T06:40:05.958Z,99.90
2022-12-23T06:42:33.871Z,99.90
2022-12-23T06:45:01.716Z,99.90
2022-12-23T06:47:29.575Z,99.90
2022-12-23T06:49:57.445Z,99.90
2022-12-23T06:52:25.297Z,99.90
2022-12-23T06:54:54.533Z,99.90
2022-12-23T06:57:22.411Z,99.90
2022-12-23T06:59:50.367Z,99.90
2022-12-23T07:02:18.391Z,99.90
2022-12-23T07:04:46.547Z,99.90
2022-12-23T07:07:14.405Z,99.90
2022-12-23T07:09:42.324Z,99.90
2022-12-23T07:12:11.558Z,99.90
2022-12-23T07:14:39.456Z,99.90
2022-12-23T07:17:07.403Z,99.90
2022-12-23T07:19:35.513Z,99.90
2022-12-23T07:22:03.347Z,99.90
2022-12-23T07:24:31.246Z,99.90
2022-12-23T07:26:59.086Z,99.90
2022-12-23T07:29:28.369Z,99.90
2022-12-23T07:31:56.282Z,99.90
2022-12-23T07:34:24.217Z,99.90
2022-12-23T07:36:52.113Z,99.90
2022-12-23T07:39:19.978Z,99.90
2022-12-23T07:41:47.865Z,99.90
2022-12-23T07:44:15.784Z,99.90
2022-12-23T07:46:45.052Z,99.90
2022-12-23T07:49:12.910Z,99.90
2022-12-23T07:51:40.774Z,99.90
2022-12-23T07:54:08.623Z,99.90
2022-12-23T07:56:36.535Z,99.90
2022-12-23T07:59:04.371Z,99.90
2022-12-23T08:01:32.340Z,99.90
2022-12-23T08:04:01.715Z,99.90
2022-12-23T08:06:29.572Z,99.90
2022-12-23T08:08:57.440Z,99.90
2022-12-23T08:11:25.315Z,99.90
2022-12-23T08:13:53.802Z,99.90
2022-12-23T08:16:21.715Z,99.90
2022-12-23T08:18:49.633Z,99.90
2022-12-23T08:21:20.260Z,99.90
2022-12-23T08:23:48.371Z,99.90
2022-12-23T08:26:17.359Z,99.90
2022-12-23T08:28:45.865Z,99.90
2022-12-23T08:31:15.112Z,99.90
2022-12-23T08:33:43.914Z,99.90
2022-12-23T08:36:20.649Z,99.90
2022-12-23T08:38:52.798Z,99.90
2022-12-23T08:41:21.444Z,99.90
2022-12-23T08:43:49.502Z,99.90
2022-12-23T08:46:17.444Z,99.90
2022-12-23T08:48:49.158Z,99.90
2022-12-23T08:51:19.109Z,99.90
2022-12-23T08:53:47.303Z,99.90
2022-12-23T08:56:17.627Z,99.90
2022-12-23T08:58:46.521Z,99.90
2022-12-23T09:01:15.303Z,99.90
2022-12-23T09:03:43.834Z,99.90
2022-12-23T09:06:13.174Z,99.90
2022-12-23T09:08:41.489Z,99.90
2022-12-23T09:11:10.066Z,99.90
2022-12-23T09:13:39.334Z,99.90
2022-12-23T09:16:08.533Z,99.90
2022-12-23T09:18:36.826Z,99.90
2022-12-23T09:21:06.140Z,99.90
2022-12-23T09:23:34.351Z,99.90
2022-12-23T09:26:02.228Z,99.90
2022-12-23T09:28:30.089Z,99.90
2022-12-23T09:30:59.396Z,99.90
2022-12-23T09:33:27.276Z,99.90
2022-12-23T09:36:00.387Z,99.90
2022-12-23T09:38:28.417Z,99.90
2022-12-23T09:41:02.365Z,99.90
2022-12-23T09:43:34.271Z,99.90
2022-12-23T09:46:07.420Z,99.90
2022-12-23T09:48:36.975Z,99.90
2022-12-23T09:51:05.624Z,99.90
2022-12-23T09:53:40.793Z,99.90
2022-12-23T09:56:13.438Z,99.90
2022-12-23T09:58:44.600Z,99.90
2022-12-23T10:01:19.152Z,99.90
2022-12-23T10:03:58.486Z,99.90
2022-12-23T10:06:28.347Z,99.90
2022-12-23T10:08:59.210Z,99.90
2022-12-23T10:11:27.910Z,99.90
2022-12-23T10:13:57.050Z,99.90
2022-12-23T10:16:28.678Z,99.90
2022-12-23T10:18:59.315Z,99.90
2022-12-23T10:21:31.133Z,99.90
2022-12-23T10:24:01.763Z,99.90
2022-12-23T10:26:32.549Z,99.90
2022-12-23T10:29:01.976Z,99.90
2022-12-23T10:31:40.770Z,99.90
2022-12-23T10:34:13.848Z,99.90
2022-12-23T10:36:46.127Z,99.90
2022-12-23T10:39:18.521Z,99.90
2022-12-23T10:41:56.034Z,99.90
2022-12-23T10:44:31.515Z,99.90
2022-12-23T10:47:06.478Z,99.90
2022-12-23T10:49:41.302Z,99.90
2022-12-23T10:52:13.029Z,99.90
2022-12-23T10:54:42.604Z,99.90
2022-12-23T10:57:10.703Z,99.90
2022-12-23T10:59:38.582Z,99.90
2022-12-23T11:02:19.523Z,99.90
2022-12-23T11:04:48.862Z,99.90
2022-12-23T11:07:43.585Z,99.90
2022-12-23T11:10:08.718Z,99.90
2022-12-23T11:12:42.457Z,99.90
2022-12-23T11:15:25.815Z,99.90
2022-12-23T11:18:00.391Z,99.90
2022-12-23T11:20:28.269Z,99.90
2022-12-23T11:22:58.304Z,99.90
2022-12-23T11:25:27.905Z,99.90
2022-12-23T11:27:57.308Z,99.90
2022-12-23T11:30:25.361Z,99.90
2022-12-23T11:32:53.449Z,99.90
2022-12-23T11:35:27.327Z,99.90
2022-12-23T11:37:55.704Z,99.90
2022-12-23T11:40:24.958Z,99.90
2022-12-23T11:42:55.482Z,99.90
2022-12-23T11:45:25.474Z,99.90
2022-12-23T11:47:53.385Z,99.90
2022-12-23T11:50:28.926Z,99.90
2022-12-23T11:52:57.346Z,99.90
2022-12-23T11:55:25.805Z,99.90
2022-12-23T11:57:53.893Z,99.90
2022-12-23T12:00:23.094Z,99.90
2022-12-23T12:02:53.041Z,99.90
2022-12-23T12:05:22.994Z,99.90
2022-12-23T12:07:53.104Z,99.90
2022-12-23T12:10:22.687Z,99.90
2022-12-23T12:12:54.827Z,99.90
2022-12-23T12:15:27.111Z,99.90
2022-12-23T12:17:56.491Z,99.90
2022-12-23T12:20:29.049Z,99.90
2022-12-23T12:23:00.469Z,99.90
2022-12-23T12:25:38.157Z,99.90
2022-12-23T12:28:11.259Z,99.90
2022-12-23T12:30:43.151Z,99.90
2022-12-23T12:33:15.272Z,99.90
2022-12-23T12:35:44.466Z,99.90
2022-12-23T12:38:17.443Z,99.90
2022-12-23T12:40:47.941Z,99.90
2022-12-23T12:43:20.001Z,99.90
2022-12-23T12:45:51.283Z,99.90
2022-12-23T12:48:32.949Z,99.90
2022-12-23T12:51:03.631Z,99.90
2022-12-23T12:53:33.452Z,99.90
2022-12-23T12:56:07.329Z,99.90
2022-12-23T12:58:35.237Z,99.90
2022-12-23T13:01:08.046Z,99.90
2022-12-23T13:03:49.177Z,99.90
2022-12-23T13:06:23.785Z,99.90
2022-12-23T13:09:01.801Z,99.90
2022-12-23T13:11:31.064Z,99.90
2022-12-23T13:14:03.032Z,99.90
2022-12-23T13:16:34.751Z,99.90
2022-12-23T13:19:05.510Z,99.90
2022-12-23T13:21:37.055Z,99.90
2022-12-23T13:24:11.611Z,99.90
2022-12-23T13:26:40.432Z,99.90
2022-12-23T13:29:26.155Z,99.90
2022-12-23T13:31:56.212Z,99.90
2022-12-23T13:34:30.593Z,99.90
2022-12-23T13:37:01.473Z,99.90
2022-12-23T13:39:36.764Z,99.90
2022-12-23T13:42:06.459Z,99.90
2022-12-23T13:44:34.697Z,99.90
2022-12-23T13:47:07.994Z,99.90
2022-12-23T13:49:46.284Z,99.90
2022-12-23T13:52:15.423Z,99.90
2022-12-23T13:54:51.355Z,99.90
2022-12-23T13:57:25.032Z,99.90
2022-12-23T14:00:05.250Z,99.90
2022-12-23T14:02:44.663Z,99.90
2022-12-23T14:05:30.199Z,99.90
2022-12-23T14:07:58.817Z,99.90
2022-12-23T14:10:28.292Z,99.90
2022-12-23T14:13:00.210Z,99.90
2022-12-23T14:15:48.927Z,99.90
2022-12-23T14:18:26.922Z,99.90
2022-12-23T14:20:57.916Z,99.90
2022-12-23T14:23:36.956Z,99.90
2022-12-23T14:26:15.885Z,99.90
2022-12-23T14:29:01.367Z,99.90
2022-12-23T14:31:33.315Z,99.90
2022-12-23T14:34:05.966Z,99.90
2022-12-23T14:36:34.312Z,99.90
2022-12-23T14:39:20.722Z,99.90
2022-12-23T14:41:52.008Z,99.90
2022-12-23T14:44:21.383Z,99.90
2022-12-23T14:46:58.327Z,99.90
2022-12-23T14:49:47.355Z,99.90
2022-12-23T14:52:35.847Z,99.90
2022-12-23T14:55:32.661Z,99.90
2022-12-23T14:58:07.729Z,99.90
2022-12-23T15:00:45.842Z,99.90
2022-12-23T15:03:13.993Z,99.90
2022-12-23T15:05:41.919Z,99.90
2022-12-23T15:08:17.819Z,99.90
2022-12-23T15:10:45.737Z,99.90
2022-12-23T15:13:15.372Z,99.90
2022-12-23T15:15:55.919Z,99.90
2022-12-23T15:18:28.482Z,99.90
2022-12-23T15:21:00.601Z,99.90
2022-12-23T15:23:28.524Z,99.90
2022-12-23T15:25:58.004Z,99.90
2022-12-23T15:28:32.685Z,99.90
2022-12-23T15:31:01.174Z,99.90
2022-12-23T15:36:23.546Z,99.90
2022-12-23T15:38:51.500Z,99.90
2022-12-23T15:41:19.605Z,99.90
2022-12-23T15:43:49.000Z,99.90
2022-12-23T15:46:23.470Z,99.90
2022-12-23T15:48:55.096Z,99.90
2022-12-23T15:51:57.803Z,99.90
2022-12-23T15:54:19.925Z,99.90
2022-12-23T15:56:49.938Z,99.90
2022-12-23T15:59:22.218Z,99.90
2022-12-23T16:01:50.147Z,99.90
2022-12-23T16:04:20.254Z,99.90
2022-12-23T16:06:49.759Z,99.90
2022-12-23T16:09:34.333Z,99.90
2022-12-23T16:12:04.042Z,99.90
2022-12-23T16:14:40.554Z,99.90
2022-12-23T16:17:22.588Z,99.90
2022-12-23T16:19:50.855Z,99.90
2022-12-23T16:22:21.906Z,99.90
2022-12-23T16:24:51.454Z,99.90
2022-12-23T16:27:20.319Z,99.90
2022-12-23T16:29:49.616Z,27.50
2022-12-23T16:32:18.573Z,47.10
2022-12-23T16:34:50.399Z,73.30
2022-12-23T16:37:18.269Z,57.50
2022-12-23T16:39:46.127Z,62.90
2022-12-23T16:42:14.015Z,50.80
2022-12-23T16:44:41.936Z,45.70
2022-12-23T16:47:16.363Z,34.80
2022-12-23T16:49:44.218Z,29.20
2022-12-23T16:52:14.206Z,47.50
2022-12-23T16:54:42.542Z,92.50
2022-12-23T16:57:10.814Z,75.00
2022-12-23T16:59:41.023Z,59.00
2022-12-23T17:02:17.732Z,55.50
2022-12-23T17:04:45.631Z,62.70
2022-12-23T17:07:13.593Z,35.40
2022-12-23T17:09:41.472Z,53.90
2022-12-23T17:12:10.625Z,53.40
2022-12-23T17:14:38.751Z,24.70
2022-12-23T17:17:13.662Z,40.70
2022-12-23T17:19:42.953Z,29.00
2022-12-23T17:22:12.465Z,29.20
2022-12-23T17:24:40.357Z,24.60
2022-12-23T17:27:12.192Z,27.00
2022-12-23T17:29:40.047Z,1.00
2022-12-23T17:32:11.338Z,1.00
2022-12-23T17:34:39.283Z,1.00
2022-12-23T17:37:13.618Z,4.90
2022-12-23T17:39:42.028Z,1.50
2022-12-23T17:42:17.783Z,9.90
2022-12-23T17:44:50.226Z,11.30
2022-12-23T17:47:19.195Z,1.20
2022-12-23T17:49:47.483Z,10.40
2022-12-23T17:52:17.933Z,1.00
2022-12-23T17:54:46.142Z,14.50
2022-12-23T17:57:19.150Z,20.90
2022-12-23T17:59:47.958Z,30.80
2022-12-23T18:02:23.155Z,33.20
2022-12-23T18:04:51.450Z,25.20
2022-12-23T18:07:20.968Z,24.50
2022-12-23T18:09:48.872Z,20.40
2022-12-23T18:12:25.109Z,19.40
2022-12-23T18:14:53.234Z,26.40
2022-12-23T18:17:21.126Z,59.60
2022-12-23T18:19:48.968Z,99.90
2022-12-23T18:22:19.228Z,99.90
2022-12-23T18:24:52.366Z,99.90
2022-12-23T18:27:24.303Z,99.90
2022-12-23T18:29:52.457Z,99.90
2022-12-23T18:32:21.682Z,99.90
2022-12-23T18:34:50.003Z,99.90
2022-12-23T18:37:17.911Z,99.90
2022-12-23T18:39:46.059Z,99.90
2022-12-23T18:42:15.632Z,99.90
2022-12-23T18:44:44.044Z,99.90
2022-12-23T18:47:12.134Z,99.90
2022-12-23T18:49:40.166Z,99.90
2022-12-23T18:52:10.263Z,99.90
2022-12-23T18:54:38.141Z,99.90
2022-12-23T18:57:06.199Z,99.90
2022-12-23T18:59:37.647Z,99.90
2022-12-23T19:02:05.910Z,99.90
2022-12-23T19:04:34.102Z,97.20
2022-12-23T19:07:02.549Z,93.00
2022-12-23T19:09:30.419Z,77.00
2022-12-23T19:11:58.507Z,85.00
2022-12-23T19:14:26.391Z,90.70
2022-12-23T19:16:55.649Z,98.70
2022-12-23T19:19:23.562Z,99.90
2022-12-23T19:21:51.397Z,99.90
2022-12-23T19:24:19.309Z,99.90
2022-12-23T19:26:47.192Z,99.90
2022-12-23T19:29:15.167Z,94.50
2022-12-23T19:31:43.054Z,88.90
2022-12-23T19:34:15.457Z,83.50
2022-12-23T19:36:43.837Z,97.40
2022-12-23T19:39:16.094Z,97.10
2022-12-23T19:41:44.461Z,96.50
2022-12-23T19:44:12.357Z,99.90
2022-12-23T19:46:40.282Z,79.90
2022-12-23T19:49:08.246Z,79.40
2022-12-23T19:51:37.473Z,97.10
2022-12-23T19:54:05.445Z,99.90
2022-12-23T19:56:35.087Z,99.90
2022-12-23T19:59:03.570Z,99.90
2022-12-23T20:01:31.551Z,99.90
2022-12-23T20:03:59.533Z,99.90
2022-12-23T20:06:29.905Z,99.90
2022-12-23T20:09:04.040Z,99.90
2022-12-23T20:11:33.894Z,99.90
2022-12-23T20:14:02.038Z,98.60
2022-12-23T20:16:30.421Z,99.90
2022-12-23T20:18:58.357Z,96.80
2022-12-23T20:21:26.287Z,85.60
2022-12-23T20:23:54.276Z,81.20
2022-12-23T20:26:23.720Z,90.60
2022-12-23T20:28:51.976Z,88.00
2022-12-23T20:31:20.610Z,36.50
2022-12-23T20:33:48.648Z,43.30
2022-12-23T20:36:17.730Z,38.20
2022-12-23T20:38:46.717Z,16.50
2022-12-23T20:41:15.514Z,9.70
2022-12-23T20:43:56.858Z,21.70
2022-12-23T20:46:32.662Z,3.30
2022-12-23T20:49:00.635Z,1.00
2022-12-23T20:51:28.718Z,1.00
2022-12-23T20:53:59.767Z,1.00
2022-12-23T20:56:29.342Z,1.00
2022-12-23T20:58:59.505Z,1.00
2022-12-23T21:01:28.858Z,1.00
2022-12-23T21:03:57.792Z,1.00
2022-12-23T21:06:26.200Z,1.00
2022-12-23T21:08:55.772Z,1.00
2022-12-23T21:11:24.328Z,1.00
2022-12-23T21:13:52.626Z,1.00
2022-12-23T21:16:21.945Z,1.00
2022-12-23T21:18:53.227Z,1.00
2022-12-23T21:21:23.545Z,1.00
2022-12-23T21:23:51.538Z,1.00
2022-12-23T21:26:20.535Z,1.00
2022-12-23T21:28:49.161Z,1.00
2022-12-23T21:31:18.480Z,1.00
2022-12-23T21:33:48.384Z,1.00
2022-12-23T21:36:20.210Z,1.00
2022-12-23T21:38:48.982Z,1.00
2022-12-23T21:41:17.582Z,1.00
2022-12-23T21:43:45.672Z,1.00
2022-12-23T21:46:14.677Z,1.00
2022-12-23T21:48:42.744Z,1.00
2022-12-23T21:51:13.374Z,1.00
2022-12-23T21:53:41.905Z,1.00
2022-12-23T21:56:11.373Z,1.00
2022-12-23T21:58:39.632Z,1.00
2022-12-23T22:01:08.345Z,1.00
2022-12-23T22:03:36.319Z,1.00
2022-12-23T22:06:10.416Z,1.00
2022-12-23T22:08:40.517Z,1.00
2022-12-23T22:11:09.291Z,1.00
2022-12-23T22:13:37.479Z,1.00
2022-12-23T22:16:05.897Z,1.00
2022-12-23T22:18:33.815Z,7.50
2022-12-23T22:21:05.152Z,16.90
2022-12-23T22:23:33.023Z,17.90
2022-12-23T22:26:02.246Z,17.40
2022-12-23T22:28:31.649Z,41.70
2022-12-23T22:31:02.149Z,53.80
2022-12-23T22:33:30.009Z,57.00
2022-12-23T22:35:57.920Z,66.70
2022-12-23T22:38:25.792Z,65.30
2022-12-23T22:40:54.048Z,81.30
2022-12-23T22:43:23.345Z,99.90
2022-12-23T22:45:56.517Z,99.90
2022-12-23T22:48:24.658Z,99.90
2022-12-23T22:50:53.744Z,99.90
2022-12-23T22:53:27.835Z,99.90
2022-12-23T22:55:57.994Z,99.90
2022-12-23T22:58:27.390Z,99.90
2022-12-23T23:00:55.339Z,99.90
2022-12-23T23:03:23.338Z,99.90
2022-12-23T23:06:01.179Z,99.90
2022-12-23T23:08:29.372Z,99.90
2022-12-23T23:10:57.689Z,99.90
2022-12-23T23:13:27.708Z,99.90
2022-12-23T23:15:56.101Z,99.90
2022-12-23T23:18:24.022Z,99.90
2022-12-23T23:20:52.302Z,99.90
2022-12-23T23:23:20.553Z,99.90
2022-12-23T23:25:48.627Z,99.90
2022-12-23T23:28:16.506Z,99.90
2022-12-23T23:30:45.761Z,99.90
2022-12-23T23:33:13.629Z,99.90
2022-12-23T23:35:41.520Z,99.90
2022-12-23T23:38:10.133Z,99.90
2022-12-23T23:40:38.010Z,99.90
2022-12-23T23:43:05.888Z,99.90
2022-12-23T23:45:33.813Z,99.90
2022-12-23T23:48:03.081Z,99.90
2022-12-23T23:50:30.964Z,99.90
2022-12-23T23:52:58.851Z,99.90
2022-12-23T23:55:26.824Z,99.90
2022-12-23T23:57:54.687Z,99.90
